createdAt,value
2022-10-11T00:09:20.576Z,28.37
2022-10-11T00:39:37.630Z,26.97
2022-10-11T01:09:46.482Z,23.13
2022-10-11T01:40:04.613Z,19.27
2022-10-11T02:10:19.329Z,10.87
2022-10-11T02:40:34.807Z,7.93
2022-10-11T03:10:45.441Z,11.47
2022-10-11T03:40:54.880Z,12.70
2022-10-11T04:11:04.744Z,8.60
2022-10-11T04:41:15.872Z,9.67
2022-10-11T05:11:24.743Z,15.07
2022-10-11T05:41:40.516Z,10.70
2022-10-11T06:11:51.594Z,14.40
2022-10-11T06:42:00.008Z,17.70
2022-10-11T07:12:12.253Z,23.00
2022-10-11T07:42:30.806Z,10.73
2022-10-11T08:12:40.067Z,7.88
2022-10-11T08:42:56.688Z,19.27
2022-10-11T09:13:19.626Z,13.97
2022-10-11T09:43:31.350Z,14.70
2022-10-11T10:13:50.038Z,16.33
2022-10-11T10:44:03.474Z,17.70
2022-10-11T11:14:26.492Z,19.67
2022-10-11T11:44:40.657Z,17.10
2022-10-11T12:15:07.456Z,19.93
2022-10-11T12:45:39.746Z,22.80
2022-10-11T13:15:52.311Z,23.10
2022-10-11T13:46:07.737Z,13.45
2022-10-11T14:16:36.952Z,10.97
2022-10-11T14:46:45.611Z,21.07
2022-10-11T15:17:01.747Z,22.07
2022-10-11T15:47:13.856Z,38.53
2022-10-11T16:17:28.042Z,54.53
2022-10-11T16:47:36.803Z,61.57
2022-10-11T17:17:46.070Z,70.20
2022-10-11T17:47:56.703Z,104.17
2022-10-11T18:18:08.208Z,129.13
2022-10-11T18:48:17.148Z,92.03
2022-10-11T19:18:29.847Z,211.67
2022-10-11T19:48:44.142Z,76.33
2022-10-11T20:18:54.540Z,68.60
2022-10-11T20:49:04.713Z,99.17
2022-10-11T21:19:17.110Z,71.70
2022-10-11T21:49:30.662Z,71.93
2022-10-11T22:19:39.258Z,114.70
2022-10-11T22:49:55.014Z,107.30
2022-10-11T23:20:04.672Z,41.93
2022-10-11T23:50:13.718Z,32.07
